sensor_id;sensor_type;location;lat;lon;timestamp;P1;durP1;ratioP1;P2;durP2;ratioP2
51828;SDS011;37881;48.024;8.774;2024-03-02T00:01:15;31.63;;;13.13;;
51828;SDS011;37881;48.024;8.774;2024-03-02T00:03:42;30.27;;;13.32;;
51828;SDS011;37881;48.024;8.774;2024-03-02T00:06:12;29.50;;;13.03;;
51828;SDS011;37881;48.024;8.774;2024-03-02T00:08:39;30.70;;;12.90;;
51828;SDS011;37881;48.024;8.774;2024-03-02T00:11:06;30.98;;;12.93;;
51828;SDS011;37881;48.024;8.774;2024-03-02T00:13:34;32.50;;;13.57;;
51828;SDS011;37881;48.024;8.774;2024-03-02T00:16:02;29.80;;;12.98;;
51828;SDS011;37881;48.024;8.774;2024-03-02T00:18:34;32.07;;;13.37;;
51828;SDS011;37881;48.024;8.774;2024-03-02T00:21:02;33.35;;;14.10;;
51828;SDS011;37881;48.024;8.774;2024-03-02T00:23:30;33.40;;;15.20;;
51828;SDS011;37881;48.024;8.774;2024-03-02T00:25:57;35.05;;;14.40;;
51828;SDS011;37881;48.024;8.774;2024-03-02T00:28:30;33.28;;;13.40;;
51828;SDS011;37881;48.024;8.774;2024-03-02T00:31:03;33.17;;;13.93;;
51828;SDS011;37881;48.024;8.774;2024-03-02T00:33:44;31.15;;;12.65;;
51828;SDS011;37881;48.024;8.774;2024-03-02T00:36:14;28.35;;;12.43;;
51828;SDS011;37881;48.024;8.774;2024-03-02T00:38:54;33.17;;;13.02;;
51828;SDS011;37881;48.024;8.774;2024-03-02T00:41:21;33.05;;;13.77;;
51828;SDS011;37881;48.024;8.774;2024-03-02T00:43:57;32.23;;;13.53;;
51828;SDS011;37881;48.024;8.774;2024-03-02T00:46:29;30.00;;;12.93;;
51828;SDS011;37881;48.024;8.774;2024-03-02T00:49:01;31.92;;;13.57;;
51828;SDS011;37881;48.024;8.774;2024-03-02T00:51:32;30.08;;;12.35;;
51828;SDS011;37881;48.024;8.774;2024-03-02T00:54:00;31.05;;;12.80;;
51828;SDS011;37881;48.024;8.774;2024-03-02T00:56:31;31.33;;;13.20;;
51828;SDS011;37881;48.024;8.774;2024-03-02T00:58:59;31.45;;;13.40;;
51828;SDS011;37881;48.024;8.774;2024-03-02T01:01:26;27.27;;;12.00;;
51828;SDS011;37881;48.024;8.774;2024-03-02T01:03:53;28.08;;;11.70;;
51828;SDS011;37881;48.024;8.774;2024-03-02T01:06:20;28.77;;;12.10;;
51828;SDS011;37881;48.024;8.774;2024-03-02T01:08:48;26.83;;;11.80;;
51828;SDS011;37881;48.024;8.774;2024-03-02T01:11:18;26.05;;;10.90;;
51828;SDS011;37881;48.024;8.774;2024-03-02T01:13:46;25.80;;;11.23;;
51828;SDS011;37881;48.024;8.774;2024-03-02T01:16:13;21.90;;;9.80;;
51828;SDS011;37881;48.024;8.774;2024-03-02T01:18:42;24.02;;;10.60;;
51828;SDS011;37881;48.024;8.774;2024-03-02T01:21:09;22.93;;;10.30;;
51828;SDS011;37881;48.024;8.774;2024-03-02T01:23:35;25.88;;;11.20;;
51828;SDS011;37881;48.024;8.774;2024-03-02T01:26:02;22.20;;;10.20;;
51828;SDS011;37881;48.024;8.774;2024-03-02T01:28:29;22.83;;;10.13;;
51828;SDS011;37881;48.024;8.774;2024-03-02T01:30:56;20.88;;;9.23;;
51828;SDS011;37881;48.024;8.774;2024-03-02T01:33:23;20.90;;;9.17;;
51828;SDS011;37881;48.024;8.774;2024-03-02T01:35:50;22.70;;;10.30;;
51828;SDS011;37881;48.024;8.774;2024-03-02T01:38:17;24.40;;;10.63;;
51828;SDS011;37881;48.024;8.774;2024-03-02T01:40:43;26.42;;;10.23;;
51828;SDS011;37881;48.024;8.774;2024-03-02T01:43:13;24.45;;;10.38;;
51828;SDS011;37881;48.024;8.774;2024-03-02T01:45:40;23.57;;;10.07;;
51828;SDS011;37881;48.024;8.774;2024-03-02T01:48:07;24.05;;;9.98;;
51828;SDS011;37881;48.024;8.774;2024-03-02T01:50:34;23.83;;;10.27;;
51828;SDS011;37881;48.024;8.774;2024-03-02T01:53:01;19.02;;;8.98;;
51828;SDS011;37881;48.024;8.774;2024-03-02T01:55:31;24.38;;;9.75;;
51828;SDS011;37881;48.024;8.774;2024-03-02T01:57:59;20.60;;;9.50;;
51828;SDS011;37881;48.024;8.774;2024-03-02T02:00:26;21.30;;;9.48;;
51828;SDS011;37881;48.024;8.774;2024-03-02T02:02:54;20.30;;;8.35;;
51828;SDS011;37881;48.024;8.774;2024-03-02T02:05:21;22.80;;;9.35;;
51828;SDS011;37881;48.024;8.774;2024-03-02T02:07:48;21.52;;;9.98;;
51828;SDS011;37881;48.024;8.774;2024-03-02T02:10:15;24.53;;;9.37;;
51828;SDS011;37881;48.024;8.774;2024-03-02T02:12:42;21.42;;;9.15;;
51828;SDS011;37881;48.024;8.774;2024-03-02T02:15:22;23.58;;;10.05;;
51828;SDS011;37881;48.024;8.774;2024-03-02T02:17:56;20.70;;;8.55;;
51828;SDS011;37881;48.024;8.774;2024-03-02T02:20:24;21.15;;;8.80;;
51828;SDS011;37881;48.024;8.774;2024-03-02T02:23:01;22.03;;;9.33;;
51828;SDS011;37881;48.024;8.774;2024-03-02T02:25:29;23.13;;;9.52;;
51828;SDS011;37881;48.024;8.774;2024-03-02T02:27:57;22.52;;;9.05;;
51828;SDS011;37881;48.024;8.774;2024-03-02T02:30:26;21.90;;;9.50;;
51828;SDS011;37881;48.024;8.774;2024-03-02T02:32:56;22.55;;;9.10;;
51828;SDS011;37881;48.024;8.774;2024-03-02T02:35:24;22.43;;;9.07;;
51828;SDS011;37881;48.024;8.774;2024-03-02T02:37:52;21.85;;;9.02;;
51828;SDS011;37881;48.024;8.774;2024-03-02T02:40:20;20.88;;;9.02;;
51828;SDS011;37881;48.024;8.774;2024-03-02T02:42:47;23.13;;;9.75;;
51828;SDS011;37881;48.024;8.774;2024-03-02T02:45:14;27.60;;;10.13;;
51828;SDS011;37881;48.024;8.774;2024-03-02T02:47:42;24.87;;;10.37;;
51828;SDS011;37881;48.024;8.774;2024-03-02T02:50:11;23.65;;;9.90;;
51828;SDS011;37881;48.024;8.774;2024-03-02T02:52:39;25.58;;;10.95;;
51828;SDS011;37881;48.024;8.774;2024-03-02T02:55:08;23.52;;;10.75;;
51828;SDS011;37881;48.024;8.774;2024-03-02T02:57:36;28.13;;;10.55;;
51828;SDS011;37881;48.024;8.774;2024-03-02T03:00:07;25.50;;;10.80;;
51828;SDS011;37881;48.024;8.774;2024-03-02T03:02:45;28.65;;;10.70;;
51828;SDS011;37881;48.024;8.774;2024-03-02T03:05:15;26.50;;;10.73;;
51828;SDS011;37881;48.024;8.774;2024-03-02T03:07:42;28.40;;;10.82;;
51828;SDS011;37881;48.024;8.774;2024-03-02T03:10:10;28.33;;;11.23;;
51828;SDS011;37881;48.024;8.774;2024-03-02T03:12:37;25.80;;;10.23;;
51828;SDS011;37881;48.024;8.774;2024-03-02T03:15:04;27.33;;;10.68;;
51828;SDS011;37881;48.024;8.774;2024-03-02T03:17:33;28.15;;;11.45;;
51828;SDS011;37881;48.024;8.774;2024-03-02T03:20:01;28.50;;;11.02;;
51828;SDS011;37881;48.024;8.774;2024-03-02T03:22:30;33.05;;;12.98;;
51828;SDS011;37881;48.024;8.774;2024-03-02T03:24:58;29.07;;;10.77;;
51828;SDS011;37881;48.024;8.774;2024-03-02T03:27:26;29.88;;;11.63;;
51828;SDS011;37881;48.024;8.774;2024-03-02T03:29:53;31.27;;;12.55;;
51828;SDS011;37881;48.024;8.774;2024-03-02T03:32:21;30.63;;;11.07;;
51828;SDS011;37881;48.024;8.774;2024-03-02T03:34:48;29.95;;;11.95;;
51828;SDS011;37881;48.024;8.774;2024-03-02T03:37:15;31.20;;;11.80;;
51828;SDS011;37881;48.024;8.774;2024-03-02T03:39:42;30.17;;;12.07;;
51828;SDS011;37881;48.024;8.774;2024-03-02T03:42:09;30.33;;;11.80;;
51828;SDS011;37881;48.024;8.774;2024-03-02T03:44:35;29.20;;;11.48;;
51828;SDS011;37881;48.024;8.774;2024-03-02T03:47:02;30.23;;;11.95;;
51828;SDS011;37881;48.024;8.774;2024-03-02T03:49:29;31.00;;;12.10;;
51828;SDS011;37881;48.024;8.774;2024-03-02T03:51:56;31.25;;;12.65;;
51828;SDS011;37881;48.024;8.774;2024-03-02T03:54:22;30.52;;;13.05;;
51828;SDS011;37881;48.024;8.774;2024-03-02T03:56:49;28.73;;;11.93;;
51828;SDS011;37881;48.024;8.774;2024-03-02T03:59:16;33.53;;;13.43;;
51828;SDS011;37881;48.024;8.774;2024-03-02T04:01:43;33.40;;;12.77;;
51828;SDS011;37881;48.024;8.774;2024-03-02T04:04:09;29.15;;;11.98;;
51828;SDS011;37881;48.024;8.774;2024-03-02T04:06:36;29.40;;;11.88;;
51828;SDS011;37881;48.024;8.774;2024-03-02T04:09:03;26.92;;;11.40;;
51828;SDS011;37881;48.024;8.774;2024-03-02T04:11:30;29.70;;;11.38;;
51828;SDS011;37881;48.024;8.774;2024-03-02T04:13:57;28.33;;;11.27;;
51828;SDS011;37881;48.024;8.774;2024-03-02T04:16:24;28.17;;;11.35;;
51828;SDS011;37881;48.024;8.774;2024-03-02T04:18:51;29.33;;;11.38;;
51828;SDS011;37881;48.024;8.774;2024-03-02T04:21:18;27.45;;;11.60;;
51828;SDS011;37881;48.024;8.774;2024-03-02T04:23:45;26.92;;;11.15;;
51828;SDS011;37881;48.024;8.774;2024-03-02T04:26:12;25.67;;;10.87;;
51828;SDS011;37881;48.024;8.774;2024-03-02T04:28:38;26.33;;;11.32;;
51828;SDS011;37881;48.024;8.774;2024-03-02T04:31:05;26.83;;;11.43;;
51828;SDS011;37881;48.024;8.774;2024-03-02T04:33:32;25.27;;;10.00;;
51828;SDS011;37881;48.024;8.774;2024-03-02T04:35:59;26.33;;;11.40;;
51828;SDS011;37881;48.024;8.774;2024-03-02T04:38:26;29.47;;;12.70;;
51828;SDS011;37881;48.024;8.774;2024-03-02T04:40:52;29.40;;;12.80;;
51828;SDS011;37881;48.024;8.774;2024-03-02T04:43:19;27.90;;;12.45;;
51828;SDS011;37881;48.024;8.774;2024-03-02T04:45:46;26.02;;;11.13;;
51828;SDS011;37881;48.024;8.774;2024-03-02T04:48:13;29.17;;;11.77;;
51828;SDS011;37881;48.024;8.774;2024-03-02T04:50:40;30.63;;;12.83;;
51828;SDS011;37881;48.024;8.774;2024-03-02T04:53:07;26.83;;;11.38;;
51828;SDS011;37881;48.024;8.774;2024-03-02T04:55:34;29.08;;;10.88;;
51828;SDS011;37881;48.024;8.774;2024-03-02T04:58:01;30.80;;;12.00;;
51828;SDS011;37881;48.024;8.774;2024-03-02T05:00:28;32.67;;;12.07;;
51828;SDS011;37881;48.024;8.774;2024-03-02T05:02:54;28.80;;;12.13;;
51828;SDS011;37881;48.024;8.774;2024-03-02T05:05:21;29.65;;;11.80;;
51828;SDS011;37881;48.024;8.774;2024-03-02T05:07:48;27.25;;;11.88;;
51828;SDS011;37881;48.024;8.774;2024-03-02T05:10:15;30.40;;;11.85;;
51828;SDS011;37881;48.024;8.774;2024-03-02T05:12:42;29.45;;;12.77;;
51828;SDS011;37881;48.024;8.774;2024-03-02T05:15:09;27.97;;;11.43;;
51828;SDS011;37881;48.024;8.774;2024-03-02T05:17:37;30.35;;;11.65;;
51828;SDS011;37881;48.024;8.774;2024-03-02T05:20:05;29.83;;;12.07;;
51828;SDS011;37881;48.024;8.774;2024-03-02T05:22:34;29.25;;;11.90;;
51828;SDS011;37881;48.024;8.774;2024-03-02T05:25:02;29.70;;;12.13;;
51828;SDS011;37881;48.024;8.774;2024-03-02T05:27:30;29.67;;;12.23;;
51828;SDS011;37881;48.024;8.774;2024-03-02T05:29:59;30.63;;;11.90;;
51828;SDS011;37881;48.024;8.774;2024-03-02T05:32:26;28.70;;;11.38;;
51828;SDS011;37881;48.024;8.774;2024-03-02T05:34:53;28.20;;;11.20;;
51828;SDS011;37881;48.024;8.774;2024-03-02T05:37:21;28.52;;;11.98;;
51828;SDS011;37881;48.024;8.774;2024-03-02T05:39:48;28.90;;;11.13;;
51828;SDS011;37881;48.024;8.774;2024-03-02T05:42:15;25.98;;;10.98;;
51828;SDS011;37881;48.024;8.774;2024-03-02T05:44:43;30.50;;;10.85;;
51828;SDS011;37881;48.024;8.774;2024-03-02T05:47:10;28.20;;;11.32;;
51828;SDS011;37881;48.024;8.774;2024-03-02T05:49:36;27.77;;;11.20;;
51828;SDS011;37881;48.024;8.774;2024-03-02T05:52:03;29.57;;;10.93;;
51828;SDS011;37881;48.024;8.774;2024-03-02T05:54:30;31.58;;;11.32;;
51828;SDS011;37881;48.024;8.774;2024-03-02T05:56:57;29.38;;;11.57;;
51828;SDS011;37881;48.024;8.774;2024-03-02T05:59:43;25.80;;;10.23;;
51828;SDS011;37881;48.024;8.774;2024-03-02T06:02:10;26.83;;;11.10;;
51828;SDS011;37881;48.024;8.774;2024-03-02T06:04:37;31.07;;;12.50;;
51828;SDS011;37881;48.024;8.774;2024-03-02T06:07:03;26.88;;;11.25;;
51828;SDS011;37881;48.024;8.774;2024-03-02T06:09:30;28.00;;;11.30;;
51828;SDS011;37881;48.024;8.774;2024-03-02T06:11:57;26.90;;;11.45;;
51828;SDS011;37881;48.024;8.774;2024-03-02T06:14:24;25.73;;;10.68;;
51828;SDS011;37881;48.024;8.774;2024-03-02T06:16:50;27.90;;;10.87;;
51828;SDS011;37881;48.024;8.774;2024-03-02T06:19:17;28.52;;;11.57;;
51828;SDS011;37881;48.024;8.774;2024-03-02T06:21:44;28.38;;;11.00;;
51828;SDS011;37881;48.024;8.774;2024-03-02T06:24:11;26.40;;;11.60;;
51828;SDS011;37881;48.024;8.774;2024-03-02T06:26:38;57.08;;;21.38;;
51828;SDS011;37881;48.024;8.774;2024-03-02T06:29:06;29.73;;;12.13;;
51828;SDS011;37881;48.024;8.774;2024-03-02T06:31:33;29.20;;;13.07;;
51828;SDS011;37881;48.024;8.774;2024-03-02T06:34:00;26.52;;;11.05;;
51828;SDS011;37881;48.024;8.774;2024-03-02T06:36:27;25.98;;;11.57;;
51828;SDS011;37881;48.024;8.774;2024-03-02T06:38:54;24.75;;;10.73;;
51828;SDS011;37881;48.024;8.774;2024-03-02T06:41:20;31.37;;;13.57;;
51828;SDS011;37881;48.024;8.774;2024-03-02T06:43:47;36.78;;;14.82;;
51828;SDS011;37881;48.024;8.774;2024-03-02T06:46:14;55.92;;;19.63;;
51828;SDS011;37881;48.024;8.774;2024-03-02T06:48:41;48.78;;;16.90;;
51828;SDS011;37881;48.024;8.774;2024-03-02T06:51:08;29.27;;;11.85;;
51828;SDS011;37881;48.024;8.774;2024-03-02T06:53:35;39.60;;;15.90;;
51828;SDS011;37881;48.024;8.774;2024-03-02T06:56:01;66.03;;;23.70;;
51828;SDS011;37881;48.024;8.774;2024-03-02T06:58:28;54.58;;;22.67;;
51828;SDS011;37881;48.024;8.774;2024-03-02T07:00:55;37.85;;;17.33;;
51828;SDS011;37881;48.024;8.774;2024-03-02T07:03:22;24.63;;;10.27;;
51828;SDS011;37881;48.024;8.774;2024-03-02T07:05:49;24.07;;;10.20;;
51828;SDS011;37881;48.024;8.774;2024-03-02T07:08:15;23.85;;;10.43;;
51828;SDS011;37881;48.024;8.774;2024-03-02T07:10:42;22.05;;;9.80;;
51828;SDS011;37881;48.024;8.774;2024-03-02T07:13:09;24.23;;;10.63;;
51828;SDS011;37881;48.024;8.774;2024-03-02T07:15:35;25.02;;;10.63;;
51828;SDS011;37881;48.024;8.774;2024-03-02T07:18:31;24.60;;;11.23;;
51828;SDS011;37881;48.024;8.774;2024-03-02T07:20:59;25.70;;;10.65;;
51828;SDS011;37881;48.024;8.774;2024-03-02T07:23:27;24.75;;;11.77;;
51828;SDS011;37881;48.024;8.774;2024-03-02T07:25:54;22.42;;;10.57;;
51828;SDS011;37881;48.024;8.774;2024-03-02T07:28:25;21.75;;;10.40;;
51828;SDS011;37881;48.024;8.774;2024-03-02T07:33:26;18.95;;;9.30;;
51828;SDS011;37881;48.024;8.774;2024-03-02T07:35:53;18.27;;;9.30;;
51828;SDS011;37881;48.024;8.774;2024-03-02T07:38:22;17.30;;;9.55;;
51828;SDS011;37881;48.024;8.774;2024-03-02T07:40:49;17.77;;;9.52;;
51828;SDS011;37881;48.024;8.774;2024-03-02T07:43:20;15.20;;;8.67;;
51828;SDS011;37881;48.024;8.774;2024-03-02T07:45:47;16.33;;;9.57;;
51828;SDS011;37881;48.024;8.774;2024-03-02T07:48:14;13.93;;;8.75;;
51828;SDS011;37881;48.024;8.774;2024-03-02T07:50:41;13.90;;;9.13;;
51828;SDS011;37881;48.024;8.774;2024-03-02T07:53:09;14.10;;;8.50;;
51828;SDS011;37881;48.024;8.774;2024-03-02T07:55:36;13.63;;;8.47;;
51828;SDS011;37881;48.024;8.774;2024-03-02T07:58:03;14.30;;;8.68;;
51828;SDS011;37881;48.024;8.774;2024-03-02T08:00:30;11.98;;;7.97;;
51828;SDS011;37881;48.024;8.774;2024-03-02T08:02:57;12.73;;;7.70;;
51828;SDS011;37881;48.024;8.774;2024-03-02T08:05:24;13.02;;;7.97;;
51828;SDS011;37881;48.024;8.774;2024-03-02T08:07:51;11.43;;;7.90;;
51828;SDS011;37881;48.024;8.774;2024-03-02T08:10:20;11.85;;;7.63;;
51828;SDS011;37881;48.024;8.774;2024-03-02T08:12:47;10.93;;;7.43;;
51828;SDS011;37881;48.024;8.774;2024-03-02T08:15:14;11.05;;;7.82;;
51828;SDS011;37881;48.024;8.774;2024-03-02T08:17:41;11.43;;;7.85;;
51828;SDS011;37881;48.024;8.774;2024-03-02T08:20:11;13.53;;;8.90;;
51828;SDS011;37881;48.024;8.774;2024-03-02T08:22:39;11.90;;;8.27;;
51828;SDS011;37881;48.024;8.774;2024-03-02T08:25:06;12.90;;;8.35;;
51828;SDS011;37881;48.024;8.774;2024-03-02T08:27:34;11.65;;;8.30;;
51828;SDS011;37881;48.024;8.774;2024-03-02T08:30:02;11.20;;;8.00;;
51828;SDS011;37881;48.024;8.774;2024-03-02T08:32:33;12.13;;;7.80;;
51828;SDS011;37881;48.024;8.774;2024-03-02T08:35:00;12.40;;;7.90;;
51828;SDS011;37881;48.024;8.774;2024-03-02T08:37:27;13.18;;;7.40;;
51828;SDS011;37881;48.024;8.774;2024-03-02T08:39:54;10.77;;;7.07;;
51828;SDS011;37881;48.024;8.774;2024-03-02T08:42:21;10.27;;;6.88;;
51828;SDS011;37881;48.024;8.774;2024-03-02T08:44:49;13.97;;;8.60;;
51828;SDS011;37881;48.024;8.774;2024-03-02T08:47:16;10.27;;;6.82;;
51828;SDS011;37881;48.024;8.774;2024-03-02T08:49:43;11.85;;;7.45;;
51828;SDS011;37881;48.024;8.774;2024-03-02T08:52:10;11.52;;;7.57;;
51828;SDS011;37881;48.024;8.774;2024-03-02T08:54:37;16.30;;;9.57;;
51828;SDS011;37881;48.024;8.774;2024-03-02T08:57:05;9.37;;;6.07;;
51828;SDS011;37881;48.024;8.774;2024-03-02T08:59:32;10.70;;;7.28;;
51828;SDS011;37881;48.024;8.774;2024-03-02T09:01:58;10.10;;;6.75;;
51828;SDS011;37881;48.024;8.774;2024-03-02T09:04:26;11.30;;;7.70;;
51828;SDS011;37881;48.024;8.774;2024-03-02T09:06:54;10.73;;;6.00;;
51828;SDS011;37881;48.024;8.774;2024-03-02T09:09:22;11.23;;;6.37;;
51828;SDS011;37881;48.024;8.774;2024-03-02T09:11:49;8.93;;;5.40;;
51828;SDS011;37881;48.024;8.774;2024-03-02T09:14:16;10.77;;;6.93;;
51828;SDS011;37881;48.024;8.774;2024-03-02T09:16:42;8.45;;;5.07;;
51828;SDS011;37881;48.024;8.774;2024-03-02T09:19:09;8.00;;;5.30;;
51828;SDS011;37881;48.024;8.774;2024-03-02T09:21:37;8.30;;;5.30;;
51828;SDS011;37881;48.024;8.774;2024-03-02T09:24:04;6.88;;;5.00;;
51828;SDS011;37881;48.024;8.774;2024-03-02T09:26:33;8.15;;;5.00;;
51828;SDS011;37881;48.024;8.774;2024-03-02T09:29:00;8.00;;;4.80;;
51828;SDS011;37881;48.024;8.774;2024-03-02T09:31:26;7.25;;;4.93;;
51828;SDS011;37881;48.024;8.774;2024-03-02T09:33:53;7.00;;;4.70;;
51828;SDS011;37881;48.024;8.774;2024-03-02T09:36:21;7.47;;;4.60;;
51828;SDS011;37881;48.024;8.774;2024-03-02T09:38:49;6.40;;;4.60;;
51828;SDS011;37881;48.024;8.774;2024-03-02T09:41:16;6.93;;;4.70;;
51828;SDS011;37881;48.024;8.774;2024-03-02T09:43:43;7.50;;;4.90;;
51828;SDS011;37881;48.024;8.774;2024-03-02T09:46:11;7.90;;;5.87;;
51828;SDS011;37881;48.024;8.774;2024-03-02T09:48:38;7.43;;;5.00;;
51828;SDS011;37881;48.024;8.774;2024-03-02T09:51:05;9.15;;;6.03;;
51828;SDS011;37881;48.024;8.774;2024-03-02T09:53:32;8.80;;;5.88;;
51828;SDS011;37881;48.024;8.774;2024-03-02T09:56:01;9.35;;;6.50;;
51828;SDS011;37881;48.024;8.774;2024-03-02T09:58:28;8.87;;;5.90;;
51828;SDS011;37881;48.024;8.774;2024-03-02T10:00:55;9.95;;;5.15;;
51828;SDS011;37881;48.024;8.774;2024-03-02T10:03:22;7.20;;;5.00;;
51828;SDS011;37881;48.024;8.774;2024-03-02T10:05:53;7.43;;;5.13;;
51828;SDS011;37881;48.024;8.774;2024-03-02T10:08:20;11.25;;;4.50;;
51828;SDS011;37881;48.024;8.774;2024-03-02T10:10:47;6.20;;;4.30;;
51828;SDS011;37881;48.024;8.774;2024-03-02T10:13:13;6.78;;;4.25;;
51828;SDS011;37881;48.024;8.774;2024-03-02T10:15:41;8.70;;;4.60;;
51828;SDS011;37881;48.024;8.774;2024-03-02T10:18:09;7.05;;;4.70;;
51828;SDS011;37881;48.024;8.774;2024-03-02T10:20:40;6.55;;;4.25;;
51828;SDS011;37881;48.024;8.774;2024-03-02T10:23:11;5.80;;;4.07;;
51828;SDS011;37881;48.024;8.774;2024-03-02T10:25:38;6.63;;;4.00;;
51828;SDS011;37881;48.024;8.774;2024-03-02T10:28:17;6.43;;;4.15;;
51828;SDS011;37881;48.024;8.774;2024-03-02T10:30:47;6.32;;;4.50;;
51828;SDS011;37881;48.024;8.774;2024-03-02T10:33:14;6.38;;;4.30;;
51828;SDS011;37881;48.024;8.774;2024-03-02T10:35:41;6.70;;;4.40;;
51828;SDS011;37881;48.024;8.774;2024-03-02T10:38:10;6.60;;;4.20;;
51828;SDS011;37881;48.024;8.774;2024-03-02T10:40:38;6.80;;;4.30;;
51828;SDS011;37881;48.024;8.774;2024-03-02T10:43:05;7.00;;;4.20;;
51828;SDS011;37881;48.024;8.774;2024-03-02T10:45:34;6.97;;;4.20;;
51828;SDS011;37881;48.024;8.774;2024-03-02T10:48:01;6.87;;;4.17;;
51828;SDS011;37881;48.024;8.774;2024-03-02T10:50:29;5.65;;;3.80;;
51828;SDS011;37881;48.024;8.774;2024-03-02T10:52:56;5.72;;;3.17;;
51828;SDS011;37881;48.024;8.774;2024-03-02T10:55:23;6.22;;;3.20;;
51828;SDS011;37881;48.024;8.774;2024-03-02T10:57:51;5.57;;;3.55;;
51828;SDS011;37881;48.024;8.774;2024-03-02T11:00:24;5.17;;;3.37;;
51828;SDS011;37881;48.024;8.774;2024-03-02T11:02:58;6.55;;;3.90;;
51828;SDS011;37881;48.024;8.774;2024-03-02T11:05:33;7.13;;;4.45;;
51828;SDS011;37881;48.024;8.774;2024-03-02T11:08:04;7.00;;;4.93;;
51828;SDS011;37881;48.024;8.774;2024-03-02T11:10:50;6.00;;;3.85;;
51828;SDS011;37881;48.024;8.774;2024-03-02T11:13:22;6.37;;;4.20;;
51828;SDS011;37881;48.024;8.774;2024-03-02T11:15:52;7.18;;;4.40;;
51828;SDS011;37881;48.024;8.774;2024-03-02T11:18:25;6.47;;;4.75;;
51828;SDS011;37881;48.024;8.774;2024-03-02T11:20:53;7.50;;;5.00;;
51828;SDS011;37881;48.024;8.774;2024-03-02T11:23:21;6.10;;;4.20;;
51828;SDS011;37881;48.024;8.774;2024-03-02T11:28:48;5.72;;;3.30;;
51828;SDS011;37881;48.024;8.774;2024-03-02T11:31:15;6.07;;;4.00;;
51828;SDS011;37881;48.024;8.774;2024-03-02T11:33:42;5.78;;;3.80;;
51828;SDS011;37881;48.024;8.774;2024-03-02T11:36:09;5.95;;;3.75;;
51828;SDS011;37881;48.024;8.774;2024-03-02T11:38:38;5.10;;;3.23;;
51828;SDS011;37881;48.024;8.774;2024-03-02T11:41:06;6.32;;;3.55;;
51828;SDS011;37881;48.024;8.774;2024-03-02T11:43:39;7.57;;;3.65;;
51828;SDS011;37881;48.024;8.774;2024-03-02T11:46:06;6.70;;;3.63;;
51828;SDS011;37881;48.024;8.774;2024-03-02T11:48:35;4.85;;;3.40;;
51828;SDS011;37881;48.024;8.774;2024-03-02T11:51:04;5.97;;;3.83;;
51828;SDS011;37881;48.024;8.774;2024-03-02T11:53:31;4.97;;;3.10;;
51828;SDS011;37881;48.024;8.774;2024-03-02T11:56:02;5.78;;;3.20;;
51828;SDS011;37881;48.024;8.774;2024-03-02T11:58:29;6.13;;;3.30;;
51828;SDS011;37881;48.024;8.774;2024-03-02T12:00:57;5.78;;;3.65;;
51828;SDS011;37881;48.024;8.774;2024-03-02T12:03:25;4.63;;;3.20;;
51828;SDS011;37881;48.024;8.774;2024-03-02T12:05:53;4.85;;;3.08;;
51828;SDS011;37881;48.024;8.774;2024-03-02T12:08:21;4.80;;;3.05;;
51828;SDS011;37881;48.024;8.774;2024-03-02T12:11:01;5.38;;;3.47;;
51828;SDS011;37881;48.024;8.774;2024-03-02T12:13:30;5.45;;;2.90;;
51828;SDS011;37881;48.024;8.774;2024-03-02T12:15:57;4.70;;;2.80;;
51828;SDS011;37881;48.024;8.774;2024-03-02T12:18:24;5.18;;;3.25;;
51828;SDS011;37881;48.024;8.774;2024-03-02T12:20:52;5.85;;;3.65;;
51828;SDS011;37881;48.024;8.774;2024-03-02T12:23:20;5.45;;;3.08;;
51828;SDS011;37881;48.024;8.774;2024-03-02T12:25:47;5.22;;;3.10;;
51828;SDS011;37881;48.024;8.774;2024-03-02T12:28:14;4.90;;;2.60;;
51828;SDS011;37881;48.024;8.774;2024-03-02T12:30:41;4.35;;;2.72;;
51828;SDS011;37881;48.024;8.774;2024-03-02T12:33:08;4.50;;;2.85;;
51828;SDS011;37881;48.024;8.774;2024-03-02T12:35:37;4.53;;;2.63;;
51828;SDS011;37881;48.024;8.774;2024-03-02T12:38:04;4.97;;;3.00;;
51828;SDS011;37881;48.024;8.774;2024-03-02T12:40:31;5.23;;;3.20;;
51828;SDS011;37881;48.024;8.774;2024-03-02T12:42:58;5.72;;;2.90;;
51828;SDS011;37881;48.024;8.774;2024-03-02T12:45:25;5.13;;;2.70;;
51828;SDS011;37881;48.024;8.774;2024-03-02T12:47:52;4.72;;;2.90;;
51828;SDS011;37881;48.024;8.774;2024-03-02T12:50:20;5.55;;;3.25;;
51828;SDS011;37881;48.024;8.774;2024-03-02T12:52:53;3.80;;;2.37;;
51828;SDS011;37881;48.024;8.774;2024-03-02T12:55:21;4.05;;;2.33;;
51828;SDS011;37881;48.024;8.774;2024-03-02T12:57:50;4.35;;;2.08;;
51828;SDS011;37881;48.024;8.774;2024-03-02T13:00:18;3.67;;;2.25;;
51828;SDS011;37881;48.024;8.774;2024-03-02T13:02:46;3.67;;;1.67;;
51828;SDS011;37881;48.024;8.774;2024-03-02T13:05:14;4.90;;;1.70;;
51828;SDS011;37881;48.024;8.774;2024-03-02T13:07:42;3.88;;;1.80;;
51828;SDS011;37881;48.024;8.774;2024-03-02T13:10:09;3.15;;;1.77;;
51828;SDS011;37881;48.024;8.774;2024-03-02T13:12:36;4.03;;;1.50;;
51828;SDS011;37881;48.024;8.774;2024-03-02T13:15:04;4.70;;;1.85;;
51828;SDS011;37881;48.024;8.774;2024-03-02T13:17:35;2.93;;;1.60;;
51828;SDS011;37881;48.024;8.774;2024-03-02T13:20:04;2.90;;;1.55;;
51828;SDS011;37881;48.024;8.774;2024-03-02T13:22:37;3.35;;;1.80;;
51828;SDS011;37881;48.024;8.774;2024-03-02T13:25:05;3.03;;;1.60;;
51828;SDS011;37881;48.024;8.774;2024-03-02T13:27:33;2.97;;;1.77;;
51828;SDS011;37881;48.024;8.774;2024-03-02T13:30:01;2.90;;;1.63;;
51828;SDS011;37881;48.024;8.774;2024-03-02T13:32:29;2.53;;;1.40;;
51828;SDS011;37881;48.024;8.774;2024-03-02T13:34:56;3.13;;;1.50;;
51828;SDS011;37881;48.024;8.774;2024-03-02T13:37:23;3.08;;;1.45;;
51828;SDS011;37881;48.024;8.774;2024-03-02T13:39:50;2.70;;;1.50;;
51828;SDS011;37881;48.024;8.774;2024-03-02T13:42:17;2.53;;;1.30;;
51828;SDS011;37881;48.024;8.774;2024-03-02T13:44:44;2.42;;;1.20;;
51828;SDS011;37881;48.024;8.774;2024-03-02T13:47:16;2.92;;;1.17;;
51828;SDS011;37881;48.024;8.774;2024-03-02T13:49:43;2.30;;;1.25;;
51828;SDS011;37881;48.024;8.774;2024-03-02T13:52:12;1.95;;;0.95;;
51828;SDS011;37881;48.024;8.774;2024-03-02T13:54:45;2.07;;;1.13;;
51828;SDS011;37881;48.024;8.774;2024-03-02T13:57:13;2.53;;;1.20;;
51828;SDS011;37881;48.024;8.774;2024-03-02T13:59:40;2.15;;;1.10;;
51828;SDS011;37881;48.024;8.774;2024-03-02T14:02:09;18.02;;;2.17;;
51828;SDS011;37881;48.024;8.774;2024-03-02T14:04:37;8.80;;;1.20;;
51828;SDS011;37881;48.024;8.774;2024-03-02T14:07:05;2.60;;;1.00;;
51828;SDS011;37881;48.024;8.774;2024-03-02T14:09:35;2.42;;;0.98;;
51828;SDS011;37881;48.024;8.774;2024-03-02T14:12:03;2.20;;;1.02;;
51828;SDS011;37881;48.024;8.774;2024-03-02T14:14:31;2.53;;;1.10;;
51828;SDS011;37881;48.024;8.774;2024-03-02T14:16:59;2.83;;;1.25;;
51828;SDS011;37881;48.024;8.774;2024-03-02T14:19:33;2.10;;;1.07;;
51828;SDS011;37881;48.024;8.774;2024-03-02T14:22:00;2.38;;;1.10;;
51828;SDS011;37881;48.024;8.774;2024-03-02T14:24:26;2.40;;;1.30;;
51828;SDS011;37881;48.024;8.774;2024-03-02T14:26:55;2.10;;;1.02;;
51828;SDS011;37881;48.024;8.774;2024-03-02T14:29:36;2.22;;;0.90;;
51828;SDS011;37881;48.024;8.774;2024-03-02T14:32:04;2.63;;;1.10;;
51828;SDS011;37881;48.024;8.774;2024-03-02T14:34:31;3.95;;;1.10;;
51828;SDS011;37881;48.024;8.774;2024-03-02T14:37:01;2.55;;;1.23;;
51828;SDS011;37881;48.024;8.774;2024-03-02T14:39:29;2.40;;;1.25;;
51828;SDS011;37881;48.024;8.774;2024-03-02T14:42:01;2.10;;;0.95;;
51828;SDS011;37881;48.024;8.774;2024-03-02T14:44:28;2.23;;;0.90;;